createdAt,value
2022-08-27T00:00:32.031Z,58.35
2022-08-27T00:02:59.264Z,58.14
2022-08-27T00:05:25.872Z,58.24
2022-08-27T00:07:52.445Z,58.12
2022-08-27T00:10:23.069Z,58.30
2022-08-27T00:12:49.655Z,58.33
2022-08-27T00:15:17.854Z,58.04
2022-08-27T00:17:45.932Z,58.22
2022-08-27T00:20:15.806Z,58.44
2022-08-27T00:22:42.401Z,58.31
2022-08-27T00:25:10.359Z,58.20
2022-08-27T00:27:37.836Z,58.26
2022-08-27T00:30:07.039Z,58.03
2022-08-27T00:32:33.587Z,57.91
2022-08-27T00:35:00.146Z,58.05
2022-08-27T00:37:26.754Z,57.85
2022-08-27T00:39:53.730Z,57.82
2022-08-27T00:42:20.321Z,57.40
2022-08-27T00:44:47.179Z,57.79
2022-08-27T00:47:18.487Z,57.83
2022-08-27T00:49:54.644Z,57.71
2022-08-27T00:52:33.428Z,57.77
2022-08-27T00:55:10.173Z,57.98
2022-08-27T00:57:39.159Z,57.59
2022-08-27T01:00:08.973Z,57.52
2022-08-27T01:02:35.771Z,57.64
2022-08-27T01:05:09.032Z,57.65
2022-08-27T01:07:39.319Z,57.75
2022-08-27T01:10:20.034Z,57.59
2022-08-27T01:12:53.344Z,57.34
2022-08-27T01:15:22.731Z,57.79
2022-08-27T01:17:50.118Z,57.56
2022-08-27T01:20:21.036Z,57.85
2022-08-27T01:23:04.494Z,57.51
2022-08-27T01:25:31.542Z,57.35
2022-08-27T01:28:00.729Z,57.36
2022-08-27T01:30:27.465Z,57.14
2022-08-27T01:32:54.822Z,57.39
2022-08-27T01:35:23.350Z,57.27
2022-08-27T01:37:53.717Z,57.33
2022-08-27T01:40:24.544Z,57.55
2022-08-27T01:42:55.512Z,57.39
2022-08-27T01:45:32.749Z,57.67
2022-08-27T01:48:00.385Z,57.58
2022-08-27T01:50:31.947Z,57.62
2022-08-27T01:53:04.302Z,57.48
2022-08-27T01:55:30.951Z,57.52
2022-08-27T01:57:57.520Z,57.56
2022-08-27T02:00:34.932Z,57.68
2022-08-27T02:03:01.566Z,57.42
2022-08-27T02:05:29.053Z,57.64
2022-08-27T02:07:56.257Z,57.62
2022-08-27T02:10:27.546Z,57.61
2022-08-27T02:12:54.329Z,57.59
2022-08-27T02:15:21.838Z,57.65
2022-08-27T02:17:48.546Z,57.51
2022-08-27T02:20:15.809Z,57.47
2022-08-27T02:22:42.608Z,57.29
2022-08-27T02:25:12.246Z,57.49
2022-08-27T02:27:38.987Z,57.19
2022-08-27T02:30:06.233Z,57.33
2022-08-27T02:32:33.027Z,57.20
2022-08-27T02:35:00.501Z,57.27
2022-08-27T02:37:28.289Z,57.21
2022-08-27T02:39:54.905Z,57.27
2022-08-27T02:42:21.689Z,57.43
2022-08-27T02:44:48.589Z,57.54
2022-08-27T02:47:16.815Z,57.46
2022-08-27T02:49:44.471Z,57.46
2022-08-27T02:52:11.145Z,57.20
2022-08-27T02:54:37.679Z,57.32
2022-08-27T02:57:05.558Z,57.42
2022-08-27T02:59:32.090Z,57.40
2022-08-27T03:01:58.722Z,57.39
2022-08-27T03:04:25.421Z,57.38
2022-08-27T03:06:52.009Z,57.69
2022-08-27T03:09:18.548Z,57.38
2022-08-27T03:11:45.147Z,57.45
2022-08-27T03:14:12.818Z,57.35
2022-08-27T03:16:40.113Z,57.48
2022-08-27T03:19:07.465Z,57.43
2022-08-27T03:21:35.474Z,57.20
2022-08-27T03:24:11.264Z,57.19
2022-08-27T03:26:39.395Z,57.26
2022-08-27T03:29:07.829Z,57.34
2022-08-27T03:31:34.406Z,57.62
2022-08-27T03:34:04.423Z,57.35
2022-08-27T03:36:31.695Z,57.41
2022-08-27T03:38:58.550Z,57.47
2022-08-27T03:41:43.831Z,57.44
2022-08-27T03:44:16.741Z,57.18
2022-08-27T03:46:48.759Z,57.27
2022-08-27T03:49:15.374Z,57.29
2022-08-27T03:51:47.370Z,57.15
2022-08-27T03:54:13.936Z,57.34
2022-08-27T03:56:41.628Z,57.17
2022-08-27T03:59:08.344Z,57.23
2022-08-27T04:01:35.104Z,57.07
2022-08-27T04:04:01.901Z,57.21
2022-08-27T04:06:28.518Z,57.10
2022-08-27T04:08:55.107Z,57.11
2022-08-27T04:11:22.162Z,57.07
2022-08-27T04:13:48.849Z,57.25
2022-08-27T04:16:15.577Z,57.13
2022-08-27T04:18:42.281Z,57.06
2022-08-27T04:21:11.407Z,57.03
2022-08-27T04:23:39.823Z,57.20
2022-08-27T04:26:08.357Z,57.14
2022-08-27T04:28:38.655Z,57.50
2022-08-27T04:31:06.325Z,57.23
2022-08-27T04:33:35.993Z,57.20
2022-08-27T04:36:06.099Z,57.25
2022-08-27T04:38:33.609Z,57.42
2022-08-27T04:41:19.970Z,57.29
2022-08-27T04:43:58.024Z,57.68
2022-08-27T04:46:30.551Z,57.55
2022-08-27T04:48:59.479Z,57.37
2022-08-27T04:51:26.933Z,57.37
2022-08-27T04:53:53.860Z,57.37
2022-08-27T04:56:23.797Z,57.58
2022-08-27T04:58:53.514Z,57.51
2022-08-27T05:01:26.303Z,57.52
2022-08-27T05:03:54.414Z,57.52
2022-08-27T05:06:22.020Z,57.58
2022-08-27T05:08:50.412Z,57.42
2022-08-27T05:11:19.165Z,57.43
2022-08-27T05:13:46.374Z,57.52
2022-08-27T05:16:16.181Z,57.74
2022-08-27T05:18:48.178Z,57.52
2022-08-27T05:21:21.087Z,57.69
2022-08-27T05:23:48.342Z,57.63
2022-08-27T05:26:15.913Z,57.42
2022-08-27T05:28:42.938Z,57.56
2022-08-27T05:31:11.766Z,57.60
2022-08-27T05:33:39.960Z,57.67
2022-08-27T05:36:07.750Z,57.84
2022-08-27T05:38:35.013Z,57.80
2022-08-27T05:41:11.594Z,58.04
2022-08-27T05:43:40.235Z,57.60
2022-08-27T05:46:10.032Z,57.68
2022-08-27T05:48:37.560Z,57.71
2022-08-27T05:51:08.429Z,57.94
2022-08-27T05:53:35.912Z,57.72
2022-08-27T05:56:02.654Z,57.58
2022-08-27T05:58:48.630Z,57.39
2022-08-27T06:01:20.785Z,57.49
2022-08-27T06:03:47.428Z,57.76
2022-08-27T06:06:14.513Z,57.69
2022-08-27T06:08:41.139Z,57.85
2022-08-27T06:11:08.112Z,57.22
2022-08-27T06:13:35.983Z,57.43
2022-08-27T06:16:09.286Z,57.31
2022-08-27T06:18:41.174Z,57.52
2022-08-27T06:21:08.153Z,57.43
2022-08-27T06:23:35.112Z,57.47
2022-08-27T06:26:05.381Z,57.60
2022-08-27T06:28:34.000Z,57.47
2022-08-27T06:31:17.720Z,57.61
2022-08-27T06:33:46.249Z,57.43
2022-08-27T06:36:16.294Z,57.45
2022-08-27T06:38:43.282Z,57.43
2022-08-27T06:41:23.272Z,57.41
2022-08-27T06:43:51.076Z,57.56
2022-08-27T06:46:20.351Z,57.68
2022-08-27T06:48:49.938Z,57.74
2022-08-27T06:51:24.480Z,57.78
2022-08-27T06:53:52.393Z,57.72
2022-08-27T06:56:20.032Z,57.59
2022-08-27T06:58:47.161Z,57.62
2022-08-27T07:01:16.102Z,57.56
2022-08-27T07:03:43.726Z,57.61
2022-08-27T07:06:13.334Z,57.47
2022-08-27T07:08:41.169Z,57.42
2022-08-27T07:11:09.850Z,57.16
2022-08-27T07:13:37.310Z,57.28
2022-08-27T07:16:06.395Z,57.27
2022-08-27T07:18:34.518Z,57.19
2022-08-27T07:21:01.153Z,57.09
2022-08-27T07:23:28.597Z,57.06
2022-08-27T07:25:55.145Z,57.13
2022-08-27T07:28:21.708Z,56.96
2022-08-27T07:30:48.361Z,56.83
2022-08-27T07:33:15.116Z,56.78
2022-08-27T07:35:41.861Z,56.65
2022-08-27T07:38:14.262Z,56.75
2022-08-27T07:40:43.215Z,56.74
2022-08-27T07:43:45.819Z,56.86
2022-08-27T07:46:12.478Z,56.50
2022-08-27T07:48:39.116Z,56.44
2022-08-27T07:51:13.072Z,56.77
2022-08-27T07:53:39.811Z,56.65
2022-08-27T07:56:08.554Z,56.59
2022-08-27T07:58:35.564Z,56.81
2022-08-27T08:01:02.851Z,56.81
2022-08-27T08:03:31.078Z,56.66
2022-08-27T08:06:02.382Z,56.67
2022-08-27T08:08:36.092Z,56.62
2022-08-27T08:11:06.449Z,56.38
2022-08-27T08:13:36.275Z,56.62
2022-08-27T08:16:04.942Z,56.55
2022-08-27T08:18:31.559Z,56.24
2022-08-27T08:21:03.388Z,55.89
2022-08-27T08:23:29.998Z,56.08
2022-08-27T08:25:57.756Z,56.09
2022-08-27T08:28:24.777Z,55.48
2022-08-27T08:30:52.638Z,55.52
2022-08-27T08:33:19.308Z,55.61
2022-08-27T08:35:45.892Z,55.27
2022-08-27T08:38:12.475Z,55.54
2022-08-27T08:40:42.645Z,55.09
2022-08-27T08:43:41.690Z,54.81
2022-08-27T08:46:17.342Z,54.69
2022-08-27T08:48:49.446Z,54.15
2022-08-27T08:51:40.697Z,53.98
2022-08-27T08:54:14.097Z,53.85
2022-08-27T08:56:54.939Z,53.85
2022-08-27T08:59:28.471Z,53.84
2022-08-27T09:01:55.135Z,53.22
2022-08-27T09:04:25.740Z,52.97
2022-08-27T09:06:52.410Z,53.04
2022-08-27T09:09:23.981Z,52.43
2022-08-27T09:11:56.154Z,53.17
2022-08-27T09:14:35.262Z,52.57
2022-08-27T09:17:07.171Z,52.36
2022-08-27T09:19:38.008Z,52.40
2022-08-27T09:22:32.682Z,52.29
2022-08-27T09:25:20.363Z,52.00
2022-08-27T09:27:51.814Z,52.47
2022-08-27T09:30:30.511Z,51.74
2022-08-27T09:33:01.729Z,51.80
2022-08-27T09:35:39.119Z,51.27
2022-08-27T09:38:05.749Z,51.32
2022-08-27T09:40:40.107Z,51.21
2022-08-27T09:43:21.834Z,51.17
2022-08-27T09:45:51.688Z,50.53
2022-08-27T09:48:21.447Z,50.21
2022-08-27T09:50:55.091Z,50.57
2022-08-27T09:53:27.285Z,50.93
2022-08-27T09:56:03.385Z,50.64
2022-08-27T09:58:47.429Z,50.74
2022-08-27T10:01:26.774Z,50.89
2022-08-27T10:04:06.548Z,49.97
2022-08-27T10:06:33.388Z,49.98
2022-08-27T10:09:07.332Z,49.41
2022-08-27T10:11:41.015Z,48.76
2022-08-27T10:14:21.585Z,48.97
2022-08-27T10:17:00.335Z,49.18
2022-08-27T10:19:36.056Z,48.74
2022-08-27T10:22:17.983Z,48.92
2022-08-27T10:25:06.733Z,48.51
2022-08-27T10:28:02.437Z,48.63
2022-08-27T10:30:38.037Z,48.28
2022-08-27T10:33:04.799Z,48.12
2022-08-27T10:36:06.068Z,47.44
2022-08-27T10:38:50.196Z,47.87
2022-08-27T10:41:20.018Z,48.34
2022-08-27T10:44:39.464Z,49.04
2022-08-27T10:47:49.442Z,48.80
2022-08-27T10:51:12.588Z,48.88
2022-08-27T10:54:22.774Z,47.83
2022-08-27T10:57:26.305Z,46.51
2022-08-27T11:00:12.170Z,46.64
2022-08-27T11:02:44.652Z,46.34
2022-08-27T11:05:45.112Z,47.27
2022-08-27T11:08:17.229Z,46.56
2022-08-27T11:10:49.368Z,46.40
2022-08-27T11:13:25.030Z,47.35
2022-08-27T11:15:54.760Z,48.23
2022-08-27T11:18:40.277Z,49.53
2022-08-27T11:21:07.904Z,48.33
2022-08-27T11:23:45.501Z,46.16
2022-08-27T11:26:12.819Z,45.75
2022-08-27T11:28:48.018Z,43.76
2022-08-27T11:31:49.197Z,43.84
2022-08-27T11:34:42.518Z,43.06
2022-08-27T11:37:37.960Z,42.36
2022-08-27T11:40:07.874Z,41.52
2022-08-27T11:42:48.441Z,41.66
2022-08-27T11:45:24.586Z,41.24
2022-08-27T11:47:59.698Z,41.43
2022-08-27T11:50:28.826Z,41.75
2022-08-27T11:53:02.198Z,41.64
2022-08-27T11:55:32.648Z,41.80
2022-08-27T11:58:07.843Z,42.08
2022-08-27T12:00:38.472Z,41.55
2022-08-27T12:03:22.538Z,42.38
2022-08-27T12:06:08.064Z,42.51
2022-08-27T12:08:36.106Z,42.04
2022-08-27T12:11:40.206Z,43.08
2022-08-27T12:14:40.030Z,42.99
2022-08-27T12:17:35.633Z,43.43
2022-08-27T12:20:40.626Z,42.92
2022-08-27T12:23:44.025Z,43.57
2022-08-27T12:26:16.979Z,45.97
2022-08-27T12:28:43.693Z,44.38
2022-08-27T12:31:10.799Z,43.19
2022-08-27T12:33:45.484Z,41.43
2022-08-27T12:36:27.995Z,41.40
2022-08-27T12:38:58.432Z,40.86
2022-08-27T12:41:44.679Z,40.62
2022-08-27T12:44:26.923Z,40.27
2022-08-27T12:47:05.375Z,40.08
2022-08-27T12:49:41.590Z,39.97
2022-08-27T12:52:36.511Z,40.72
2022-08-27T12:55:25.379Z,39.94
2022-08-27T12:57:57.187Z,40.63
2022-08-27T13:00:26.502Z,41.06
2022-08-27T13:02:59.167Z,41.33
2022-08-27T13:05:41.192Z,41.69
2022-08-27T13:08:29.918Z,41.62
2022-08-27T13:11:07.037Z,41.99
2022-08-27T13:13:33.605Z,41.85
2022-08-27T13:16:04.419Z,41.71
2022-08-27T13:18:31.262Z,41.22
2022-08-27T13:21:13.352Z,41.57
2022-08-27T13:23:45.793Z,41.85
2022-08-27T13:26:12.713Z,41.66
2022-08-27T13:28:43.041Z,41.33
2022-08-27T13:31:11.256Z,41.73
2022-08-27T13:33:40.448Z,41.69
2022-08-27T13:36:09.330Z,41.66
2022-08-27T13:38:49.783Z,41.83
2022-08-27T13:41:36.375Z,42.18
2022-08-27T13:44:12.609Z,41.80
2022-08-27T13:46:49.786Z,42.37
2022-08-27T13:49:22.003Z,42.37
2022-08-27T13:51:49.751Z,42.29
2022-08-27T13:54:18.851Z,41.54
2022-08-27T13:56:49.101Z,42.17
2022-08-27T13:59:19.364Z,41.85
2022-08-27T14:01:55.619Z,42.23
2022-08-27T14:04:26.740Z,42.24
2022-08-27T14:06:54.601Z,41.81
2022-08-27T14:09:27.210Z,42.46
2022-08-27T14:12:02.005Z,42.52
2022-08-27T14:14:30.635Z,42.68
2022-08-27T14:16:59.954Z,42.61
2022-08-27T14:19:33.223Z,42.38
2022-08-27T14:22:03.408Z,42.19
2022-08-27T14:24:30.014Z,42.33
2022-08-27T14:27:05.650Z,42.99
2022-08-27T14:29:32.251Z,43.14
2022-08-27T14:31:58.803Z,43.21
2022-08-27T14:34:25.362Z,42.69
2022-08-27T14:36:55.040Z,42.78
2022-08-27T14:39:26.559Z,43.01
2022-08-27T14:41:53.972Z,43.07
2022-08-27T14:44:21.862Z,43.06
2022-08-27T14:46:49.080Z,43.02
2022-08-27T14:49:25.930Z,43.13
2022-08-27T14:51:52.702Z,43.25
2022-08-27T14:54:19.277Z,42.87
2022-08-27T14:56:46.287Z,43.10
2022-08-27T14:59:12.816Z,42.73
2022-08-27T15:01:39.537Z,42.62
2022-08-27T15:04:06.896Z,42.89
2022-08-27T15:06:33.670Z,43.03
2022-08-27T15:09:01.690Z,42.91
2022-08-27T15:11:31.256Z,42.62
2022-08-27T15:14:00.341Z,42.77
2022-08-27T15:16:35.949Z,42.30
2022-08-27T15:19:03.104Z,43.07
2022-08-27T15:21:31.124Z,42.54
2022-08-27T15:24:13.063Z,42.93
2022-08-27T15:26:39.676Z,43.03
2022-08-27T15:29:06.867Z,42.94
2022-08-27T15:31:33.970Z,43.34
2022-08-27T15:34:00.805Z,43.18
2022-08-27T15:36:27.442Z,42.96
2022-08-27T15:38:55.198Z,43.01
2022-08-27T15:41:25.183Z,43.24
2022-08-27T15:43:55.296Z,43.22
2022-08-27T15:46:22.907Z,42.97
2022-08-27T15:48:49.523Z,42.61
2022-08-27T15:51:17.679Z,42.47
2022-08-27T15:53:44.416Z,42.46
2022-08-27T15:56:11.032Z,42.54
2022-08-27T15:58:45.270Z,42.72
2022-08-27T16:01:15.035Z,42.56
2022-08-27T16:03:43.857Z,42.92
2022-08-27T16:06:10.468Z,42.83
2022-08-27T16:08:41.707Z,42.94
2022-08-27T16:11:09.369Z,42.97
2022-08-27T16:13:36.753Z,43.42
2022-08-27T16:16:03.975Z,43.79
2022-08-27T16:18:33.166Z,43.10
2022-08-27T16:21:02.108Z,42.95
2022-08-27T16:23:30.606Z,42.74
2022-08-27T16:25:57.702Z,42.97
2022-08-27T16:28:25.029Z,42.94
2022-08-27T16:30:54.576Z,42.93
2022-08-27T16:33:22.942Z,43.05
2022-08-27T16:35:50.381Z,42.52
2022-08-27T16:38:17.184Z,42.77
2022-08-27T16:40:55.140Z,42.40
2022-08-27T16:43:24.653Z,42.62
2022-08-27T16:45:53.375Z,42.40
2022-08-27T16:48:39.446Z,42.35
2022-08-27T16:51:09.098Z,42.09
2022-08-27T16:53:39.854Z,42.18
2022-08-27T16:56:06.902Z,42.24
2022-08-27T16:58:33.770Z,42.66
2022-08-27T17:01:07.291Z,43.11
2022-08-27T17:04:07.013Z,42.70
2022-08-27T17:06:29.222Z,42.34
2022-08-27T17:08:56.259Z,42.78
2022-08-27T17:11:28.706Z,42.42
2022-08-27T17:13:58.684Z,42.23
2022-08-27T17:16:29.630Z,42.29
2022-08-27T17:18:58.414Z,42.48
2022-08-27T17:21:29.720Z,42.50
2022-08-27T17:23:59.407Z,42.19
2022-08-27T17:26:26.283Z,42.42
2022-08-27T17:28:53.636Z,42.49
2022-08-27T17:31:28.436Z,42.42
2022-08-27T17:33:59.135Z,42.47
2022-08-27T17:36:27.158Z,42.24
2022-08-27T17:38:54.862Z,42.72
2022-08-27T17:41:33.917Z,42.31
2022-08-27T17:44:05.655Z,42.58
2022-08-27T17:46:32.509Z,42.27
2022-08-27T17:48:59.757Z,42.29
2022-08-27T17:51:27.559Z,42.58
2022-08-27T17:54:00.558Z,42.67
2022-08-27T17:56:28.394Z,42.65
2022-08-27T17:58:55.302Z,42.52
2022-08-27T18:01:28.747Z,42.38
2022-08-27T18:03:56.729Z,42.15
2022-08-27T18:06:24.002Z,42.55
2022-08-27T18:08:50.609Z,42.27
2022-08-27T18:11:17.648Z,42.79
2022-08-27T18:13:48.112Z,42.38
2022-08-27T18:16:14.725Z,42.54
2022-08-27T18:18:41.850Z,42.67
2022-08-27T18:21:08.525Z,42.81
2022-08-27T18:23:36.978Z,42.98
2022-08-27T18:26:06.619Z,42.68
2022-08-27T18:28:34.195Z,42.92
2022-08-27T18:31:03.724Z,42.83
2022-08-27T18:33:33.666Z,42.96
2022-08-27T18:36:00.422Z,43.17
2022-08-27T18:38:27.046Z,43.21
2022-08-27T18:40:54.643Z,43.29
2022-08-27T18:43:29.654Z,43.40
2022-08-27T18:45:56.455Z,43.34
2022-08-27T18:48:23.865Z,43.18
2022-08-27T18:50:55.595Z,43.61
2022-08-27T18:53:22.215Z,43.34
2022-08-27T18:55:50.579Z,43.75
2022-08-27T18:58:18.065Z,43.84
2022-08-27T19:00:48.946Z,43.70
2022-08-27T19:03:21.966Z,43.70
2022-08-27T19:05:48.762Z,43.91
2022-08-27T19:08:22.891Z,43.75
2022-08-27T19:10:49.663Z,43.77
2022-08-27T19:13:16.474Z,43.70
2022-08-27T19:16:05.862Z,43.78
2022-08-27T19:18:35.512Z,43.60
2022-08-27T19:21:02.434Z,43.55
2022-08-27T19:23:29.198Z,44.07
2022-08-27T19:25:57.802Z,43.94
2022-08-27T19:28:37.746Z,43.93
2022-08-27T19:31:04.984Z,44.05
2022-08-27T19:33:31.667Z,44.03
2022-08-27T19:35:58.667Z,44.29
2022-08-27T19:38:28.526Z,44.28
2022-08-27T19:40:55.606Z,44.09
2022-08-27T19:43:22.204Z,44.62
2022-08-27T19:45:48.934Z,44.20
2022-08-27T19:48:16.680Z,44.37
2022-08-27T19:50:44.608Z,44.47
2022-08-27T19:53:11.278Z,44.32
2022-08-27T19:55:45.251Z,44.48
2022-08-27T19:58:14.097Z,44.77
2022-08-27T20:00:41.983Z,44.91
2022-08-27T20:03:08.634Z,44.59
2022-08-27T20:05:35.697Z,44.78
2022-08-27T20:08:03.561Z,44.94
2022-08-27T20:10:31.863Z,44.99
2022-08-27T20:13:03.017Z,44.92
2022-08-27T20:15:29.969Z,45.13
2022-08-27T20:17:59.362Z,45.25
2022-08-27T20:20:28.256Z,45.23
2022-08-27T20:22:55.917Z,45.27
2022-08-27T20:25:23.939Z,45.45
2022-08-27T20:27:51.090Z,45.50
2022-08-27T20:30:22.836Z,45.79
2022-08-27T20:32:49.657Z,45.69
2022-08-27T20:35:17.711Z,45.63
2022-08-27T20:37:44.568Z,45.86
2022-08-27T20:40:15.752Z,46.02
2022-08-27T20:42:42.685Z,46.03
2022-08-27T20:45:12.127Z,46.34
2022-08-27T20:47:40.107Z,46.26
2022-08-27T20:50:07.580Z,46.36
2022-08-27T20:52:35.693Z,46.42
2022-08-27T20:55:03.171Z,46.60
2022-08-27T20:57:29.789Z,46.50
2022-08-27T21:00:15.010Z,46.74
2022-08-27T21:02:41.676Z,46.77
2022-08-27T21:05:11.852Z,47.05
2022-08-27T21:07:38.915Z,47.05
2022-08-27T21:10:06.732Z,47.42
2022-08-27T21:12:33.598Z,47.33
2022-08-27T21:15:01.551Z,47.48
2022-08-27T21:17:29.459Z,47.64
2022-08-27T21:19:56.557Z,47.54
2022-08-27T21:22:24.886Z,47.86
2022-08-27T21:24:52.529Z,48.03
2022-08-27T21:27:24.248Z,48.36
2022-08-27T21:29:51.118Z,47.89
2022-08-27T21:32:18.433Z,48.06
2022-08-27T21:34:45.381Z,48.23
2022-08-27T21:37:13.779Z,48.54
2022-08-27T21:39:42.102Z,48.36
2022-08-27T21:42:10.068Z,48.62
2022-08-27T21:44:37.418Z,48.67
2022-08-27T21:47:04.512Z,48.43
2022-08-27T21:49:32.628Z,48.59
2022-08-27T21:52:00.823Z,48.48
2022-08-27T21:54:27.950Z,48.68
2022-08-27T21:56:54.859Z,48.67
2022-08-27T21:59:21.960Z,48.85
2022-08-27T22:01:55.830Z,48.98
2022-08-27T22:04:27.484Z,48.98
2022-08-27T22:06:57.784Z,49.23
2022-08-27T22:09:24.400Z,49.30
2022-08-27T22:11:51.236Z,49.54
2022-08-27T22:14:17.871Z,49.55
2022-08-27T22:16:44.476Z,49.74
2022-08-27T22:19:11.124Z,49.89
2022-08-27T22:21:37.851Z,49.83
2022-08-27T22:24:05.961Z,50.05
2022-08-27T22:26:32.581Z,50.39
2022-08-27T22:28:59.525Z,50.38
2022-08-27T22:31:26.352Z,50.46
2022-08-27T22:33:53.581Z,50.69
2022-08-27T22:36:20.357Z,50.61
2022-08-27T22:38:47.727Z,50.52
2022-08-27T22:41:14.766Z,50.75
2022-08-27T22:43:45.542Z,51.09
2022-08-27T22:46:12.266Z,51.25
2022-08-27T22:48:39.180Z,51.42
2022-08-27T22:51:05.964Z,51.53
2022-08-27T22:53:36.315Z,51.88
2022-08-27T22:56:06.243Z,51.50
2022-08-27T22:58:32.884Z,51.45
2022-08-27T23:00:59.974Z,51.75
2022-08-27T23:03:26.880Z,51.65
2022-08-27T23:05:53.831Z,51.96
2022-08-27T23:08:23.088Z,51.77
2022-08-27T23:10:50.222Z,52.07
2022-08-27T23:13:16.860Z,51.84
2022-08-27T23:15:43.608Z,51.76
2022-08-27T23:18:10.512Z,51.95
2022-08-27T23:20:37.276Z,51.59
2022-08-27T23:23:04.141Z,51.58
2022-08-27T23:25:49.222Z,51.72
2022-08-27T23:28:16.203Z,51.81
2022-08-27T23:30:44.746Z,51.85
2022-08-27T23:33:13.183Z,51.67
2022-08-27T23:35:41.348Z,51.51
2022-08-27T23:38:07.978Z,51.62
2022-08-27T23:40:34.681Z,51.80
2022-08-27T23:43:01.883Z,51.77
2022-08-27T23:45:28.543Z,51.59
2022-08-27T23:47:55.121Z,51.75
2022-08-27T23:50:26.366Z,51.76
2022-08-27T23:53:01.786Z,51.30
2022-08-27T23:55:28.869Z,51.48
2022-08-27T23:57:57.779Z,51.64
